sensor_id;sensor_type;location;lat;lon;timestamp;P1;durP1;ratioP1;P2;durP2;ratioP2
15476;SDS011;7840;42.702;23.296;2022-07-23T00:01:26;13.50;;;7.57;;
15476;SDS011;7840;42.702;23.296;2022-07-23T00:03:55;9.93;;;7.32;;
15476;SDS011;7840;42.702;23.296;2022-07-23T00:06:25;8.07;;;6.90;;
15476;SDS011;7840;42.702;23.296;2022-07-23T00:08:53;12.25;;;7.93;;
15476;SDS011;7840;42.702;23.296;2022-07-23T00:11:20;12.43;;;7.00;;
15476;SDS011;7840;42.702;23.296;2022-07-23T00:13:48;15.15;;;7.38;;
15476;SDS011;7840;42.702;23.296;2022-07-23T00:16:16;12.13;;;7.68;;
15476;SDS011;7840;42.702;23.296;2022-07-23T00:18:45;11.45;;;8.10;;
15476;SDS011;7840;42.702;23.296;2022-07-23T00:21:14;14.60;;;7.57;;
15476;SDS011;7840;42.702;23.296;2022-07-23T00:23:41;9.52;;;8.05;;
15476;SDS011;7840;42.702;23.296;2022-07-23T00:26:09;12.27;;;8.15;;
15476;SDS011;7840;42.702;23.296;2022-07-23T00:28:37;11.13;;;8.20;;
15476;SDS011;7840;42.702;23.296;2022-07-23T00:31:04;12.02;;;8.40;;
15476;SDS011;7840;42.702;23.296;2022-07-23T00:33:35;9.65;;;7.90;;
15476;SDS011;7840;42.702;23.296;2022-07-23T00:36:03;13.60;;;8.20;;
15476;SDS011;7840;42.702;23.296;2022-07-23T00:38:33;11.18;;;7.30;;
15476;SDS011;7840;42.702;23.296;2022-07-23T00:41:00;10.52;;;6.70;;
15476;SDS011;7840;42.702;23.296;2022-07-23T00:43:29;10.63;;;7.07;;
15476;SDS011;7840;42.702;23.296;2022-07-23T00:45:56;9.68;;;6.90;;
15476;SDS011;7840;42.702;23.296;2022-07-23T00:48:27;10.95;;;7.40;;
15476;SDS011;7840;42.702;23.296;2022-07-23T00:50:55;8.85;;;6.85;;
15476;SDS011;7840;42.702;23.296;2022-07-23T00:53:23;7.90;;;7.10;;
15476;SDS011;7840;42.702;23.296;2022-07-23T00:56:03;8.82;;;7.07;;
15476;SDS011;7840;42.702;23.296;2022-07-23T00:58:32;9.73;;;7.28;;
15476;SDS011;7840;42.702;23.296;2022-07-23T01:01:02;9.00;;;7.20;;
15476;SDS011;7840;42.702;23.296;2022-07-23T01:03:30;6.93;;;6.18;;
15476;SDS011;7840;42.702;23.296;2022-07-23T01:05:57;7.57;;;6.60;;
15476;SDS011;7840;42.702;23.296;2022-07-23T01:08:26;7.75;;;6.75;;
15476;SDS011;7840;42.702;23.296;2022-07-23T01:10:55;9.45;;;7.15;;
15476;SDS011;7840;42.702;23.296;2022-07-23T01:13:23;9.10;;;7.15;;
15476;SDS011;7840;42.702;23.296;2022-07-23T01:15:51;8.52;;;6.68;;
15476;SDS011;7840;42.702;23.296;2022-07-23T01:18:18;10.27;;;7.43;;
15476;SDS011;7840;42.702;23.296;2022-07-23T01:20:46;7.97;;;6.97;;
15476;SDS011;7840;42.702;23.296;2022-07-23T01:23:16;9.55;;;7.25;;
15476;SDS011;7840;42.702;23.296;2022-07-23T01:25:47;13.82;;;7.93;;
15476;SDS011;7840;42.702;23.296;2022-07-23T01:28:15;14.23;;;7.55;;
15476;SDS011;7840;42.702;23.296;2022-07-23T01:30:43;9.40;;;7.63;;
15476;SDS011;7840;42.702;23.296;2022-07-23T01:33:11;10.25;;;7.95;;
15476;SDS011;7840;42.702;23.296;2022-07-23T01:35:38;11.35;;;7.68;;
15476;SDS011;7840;42.702;23.296;2022-07-23T01:38:06;10.20;;;7.03;;
15476;SDS011;7840;42.702;23.296;2022-07-23T01:40:35;8.43;;;6.95;;
15476;SDS011;7840;42.702;23.296;2022-07-23T01:43:04;10.00;;;7.68;;
15476;SDS011;7840;42.702;23.296;2022-07-23T01:45:32;13.05;;;7.68;;
15476;SDS011;7840;42.702;23.296;2022-07-23T01:47:59;8.52;;;6.90;;
15476;SDS011;7840;42.702;23.296;2022-07-23T01:50:27;9.23;;;6.85;;
15476;SDS011;7840;42.702;23.296;2022-07-23T01:52:54;8.07;;;7.18;;
15476;SDS011;7840;42.702;23.296;2022-07-23T01:55:22;10.18;;;6.65;;
15476;SDS011;7840;42.702;23.296;2022-07-23T01:57:52;8.07;;;7.25;;
15476;SDS011;7840;42.702;23.296;2022-07-23T02:00:19;10.77;;;6.57;;
15476;SDS011;7840;42.702;23.296;2022-07-23T02:02:47;11.40;;;6.90;;
15476;SDS011;7840;42.702;23.296;2022-07-23T02:05:15;9.57;;;6.72;;
15476;SDS011;7840;42.702;23.296;2022-07-23T02:07:42;10.43;;;7.35;;
15476;SDS011;7840;42.702;23.296;2022-07-23T02:10:10;12.50;;;6.45;;
15476;SDS011;7840;42.702;23.296;2022-07-23T02:12:38;7.88;;;6.80;;
15476;SDS011;7840;42.702;23.296;2022-07-23T02:15:07;7.80;;;6.55;;
15476;SDS011;7840;42.702;23.296;2022-07-23T02:17:35;7.65;;;6.82;;
15476;SDS011;7840;42.702;23.296;2022-07-23T02:20:04;8.68;;;6.65;;
15476;SDS011;7840;42.702;23.296;2022-07-23T02:22:32;8.82;;;6.55;;
15476;SDS011;7840;42.702;23.296;2022-07-23T02:24:59;8.52;;;7.00;;
15476;SDS011;7840;42.702;23.296;2022-07-23T02:27:28;9.13;;;6.65;;
15476;SDS011;7840;42.702;23.296;2022-07-23T02:29:55;10.93;;;7.15;;
15476;SDS011;7840;42.702;23.296;2022-07-23T02:32:24;8.63;;;6.72;;
15476;SDS011;7840;42.702;23.296;2022-07-23T02:34:52;8.95;;;7.65;;
15476;SDS011;7840;42.702;23.296;2022-07-23T02:37:20;13.10;;;7.60;;
15476;SDS011;7840;42.702;23.296;2022-07-23T02:39:47;12.25;;;7.90;;
15476;SDS011;7840;42.702;23.296;2022-07-23T02:42:16;9.35;;;7.82;;
15476;SDS011;7840;42.702;23.296;2022-07-23T02:44:44;9.52;;;8.68;;
15476;SDS011;7840;42.702;23.296;2022-07-23T02:47:12;16.77;;;9.70;;
15476;SDS011;7840;42.702;23.296;2022-07-23T02:49:40;11.98;;;9.20;;
15476;SDS011;7840;42.702;23.296;2022-07-23T02:52:08;14.13;;;8.68;;
15476;SDS011;7840;42.702;23.296;2022-07-23T02:54:36;10.23;;;9.23;;
15476;SDS011;7840;42.702;23.296;2022-07-23T02:57:04;12.30;;;8.75;;
15476;SDS011;7840;42.702;23.296;2022-07-23T02:59:32;10.75;;;8.43;;
15476;SDS011;7840;42.702;23.296;2022-07-23T03:01:59;9.27;;;8.32;;
15476;SDS011;7840;42.702;23.296;2022-07-23T03:04:27;10.63;;;8.23;;
15476;SDS011;7840;42.702;23.296;2022-07-23T03:06:56;8.68;;;7.72;;
15476;SDS011;7840;42.702;23.296;2022-07-23T03:09:23;13.90;;;7.97;;
15476;SDS011;7840;42.702;23.296;2022-07-23T03:11:51;9.23;;;8.07;;
15476;SDS011;7840;42.702;23.296;2022-07-23T03:14:19;11.35;;;7.85;;
15476;SDS011;7840;42.702;23.296;2022-07-23T03:16:47;12.18;;;7.45;;
15476;SDS011;7840;42.702;23.296;2022-07-23T03:19:15;11.55;;;8.23;;
15476;SDS011;7840;42.702;23.296;2022-07-23T03:21:43;8.43;;;7.63;;
15476;SDS011;7840;42.702;23.296;2022-07-23T03:24:15;9.98;;;7.57;;
15476;SDS011;7840;42.702;23.296;2022-07-23T03:26:47;8.70;;;7.13;;
15476;SDS011;7840;42.702;23.296;2022-07-23T03:29:14;8.82;;;7.50;;
15476;SDS011;7840;42.702;23.296;2022-07-23T03:31:43;9.77;;;7.80;;
15476;SDS011;7840;42.702;23.296;2022-07-23T03:34:10;10.23;;;7.90;;
15476;SDS011;7840;42.702;23.296;2022-07-23T03:36:38;11.52;;;8.13;;
15476;SDS011;7840;42.702;23.296;2022-07-23T03:39:05;10.18;;;8.40;;
15476;SDS011;7840;42.702;23.296;2022-07-23T03:41:34;8.50;;;7.65;;
15476;SDS011;7840;42.702;23.296;2022-07-23T03:44:02;16.58;;;7.90;;
15476;SDS011;7840;42.702;23.296;2022-07-23T03:46:30;13.27;;;8.30;;
15476;SDS011;7840;42.702;23.296;2022-07-23T03:49:01;10.52;;;8.18;;
15476;SDS011;7840;42.702;23.296;2022-07-23T03:51:29;11.20;;;7.82;;
15476;SDS011;7840;42.702;23.296;2022-07-23T03:54:00;13.23;;;7.80;;
15476;SDS011;7840;42.702;23.296;2022-07-23T03:56:28;12.00;;;7.75;;
15476;SDS011;7840;42.702;23.296;2022-07-23T03:58:58;9.15;;;7.38;;
15476;SDS011;7840;42.702;23.296;2022-07-23T04:01:25;11.48;;;7.65;;
15476;SDS011;7840;42.702;23.296;2022-07-23T04:03:53;8.63;;;7.65;;
15476;SDS011;7840;42.702;23.296;2022-07-23T04:06:21;11.32;;;7.82;;
15476;SDS011;7840;42.702;23.296;2022-07-23T04:08:48;12.55;;;8.05;;
15476;SDS011;7840;42.702;23.296;2022-07-23T04:11:19;9.02;;;7.25;;
15476;SDS011;7840;42.702;23.296;2022-07-23T04:13:49;14.00;;;7.82;;
15476;SDS011;7840;42.702;23.296;2022-07-23T04:16:18;8.65;;;7.15;;
15476;SDS011;7840;42.702;23.296;2022-07-23T04:18:46;10.27;;;7.57;;
15476;SDS011;7840;42.702;23.296;2022-07-23T04:21:14;11.15;;;7.45;;
15476;SDS011;7840;42.702;23.296;2022-07-23T04:23:45;8.35;;;7.43;;
15476;SDS011;7840;42.702;23.296;2022-07-23T04:26:12;7.78;;;6.75;;
15476;SDS011;7840;42.702;23.296;2022-07-23T04:28:42;10.77;;;7.40;;
15476;SDS011;7840;42.702;23.296;2022-07-23T04:31:10;13.45;;;7.47;;
15476;SDS011;7840;42.702;23.296;2022-07-23T04:33:39;9.70;;;7.13;;
15476;SDS011;7840;42.702;23.296;2022-07-23T04:36:07;12.32;;;7.68;;
15476;SDS011;7840;42.702;23.296;2022-07-23T04:38:34;11.07;;;7.97;;
15476;SDS011;7840;42.702;23.296;2022-07-23T04:41:02;12.57;;;7.97;;
15476;SDS011;7840;42.702;23.296;2022-07-23T04:43:32;8.82;;;7.32;;
15476;SDS011;7840;42.702;23.296;2022-07-23T04:46:06;12.27;;;7.50;;
15476;SDS011;7840;42.702;23.296;2022-07-23T04:48:35;12.85;;;8.15;;
15476;SDS011;7840;42.702;23.296;2022-07-23T04:51:05;11.93;;;7.63;;
15476;SDS011;7840;42.702;23.296;2022-07-23T04:53:36;12.27;;;7.60;;
15476;SDS011;7840;42.702;23.296;2022-07-23T04:56:08;11.55;;;8.15;;
15476;SDS011;7840;42.702;23.296;2022-07-23T04:58:36;15.55;;;7.57;;
15476;SDS011;7840;42.702;23.296;2022-07-23T05:01:03;10.57;;;7.97;;
15476;SDS011;7840;42.702;23.296;2022-07-23T05:03:31;8.77;;;7.65;;
15476;SDS011;7840;42.702;23.296;2022-07-23T05:06:12;8.57;;;7.75;;
15476;SDS011;7840;42.702;23.296;2022-07-23T05:08:40;9.73;;;7.15;;
15476;SDS011;7840;42.702;23.296;2022-07-23T05:11:07;13.50;;;7.53;;
15476;SDS011;7840;42.702;23.296;2022-07-23T05:13:35;8.95;;;7.60;;
15476;SDS011;7840;42.702;23.296;2022-07-23T05:16:05;12.30;;;7.80;;
15476;SDS011;7840;42.702;23.296;2022-07-23T05:18:36;10.77;;;7.32;;
15476;SDS011;7840;42.702;23.296;2022-07-23T05:21:04;14.15;;;7.72;;
15476;SDS011;7840;42.702;23.296;2022-07-23T05:23:34;10.85;;;7.75;;
15476;SDS011;7840;42.702;23.296;2022-07-23T05:26:01;10.65;;;7.78;;
15476;SDS011;7840;42.702;23.296;2022-07-23T05:28:29;8.82;;;7.50;;
15476;SDS011;7840;42.702;23.296;2022-07-23T05:30:57;9.57;;;7.68;;
15476;SDS011;7840;42.702;23.296;2022-07-23T05:33:24;10.35;;;7.50;;
15476;SDS011;7840;42.702;23.296;2022-07-23T05:35:52;11.70;;;7.75;;
15476;SDS011;7840;42.702;23.296;2022-07-23T05:38:21;8.55;;;7.57;;
15476;SDS011;7840;42.702;23.296;2022-07-23T05:40:50;9.63;;;7.32;;
15476;SDS011;7840;42.702;23.296;2022-07-23T05:43:24;10.50;;;7.43;;
15476;SDS011;7840;42.702;23.296;2022-07-23T05:45:52;9.88;;;7.25;;
15476;SDS011;7840;42.702;23.296;2022-07-23T05:48:33;11.10;;;7.30;;
15476;SDS011;7840;42.702;23.296;2022-07-23T05:51:01;9.88;;;7.90;;
15476;SDS011;7840;42.702;23.296;2022-07-23T05:53:31;11.32;;;8.00;;
15476;SDS011;7840;42.702;23.296;2022-07-23T05:56:00;10.02;;;7.68;;
15476;SDS011;7840;42.702;23.296;2022-07-23T05:58:28;8.60;;;7.18;;
15476;SDS011;7840;42.702;23.296;2022-07-23T06:00:56;11.27;;;8.23;;
15476;SDS011;7840;42.702;23.296;2022-07-23T06:03:24;12.93;;;7.82;;
15476;SDS011;7840;42.702;23.296;2022-07-23T06:05:52;10.27;;;7.97;;
15476;SDS011;7840;42.702;23.296;2022-07-23T06:08:21;11.50;;;7.57;;
15476;SDS011;7840;42.702;23.296;2022-07-23T06:10:49;10.43;;;7.60;;
15476;SDS011;7840;42.702;23.296;2022-07-23T06:13:18;10.35;;;7.72;;
15476;SDS011;7840;42.702;23.296;2022-07-23T06:15:46;9.15;;;7.50;;
15476;SDS011;7840;42.702;23.296;2022-07-23T06:18:13;9.63;;;7.95;;
15476;SDS011;7840;42.702;23.296;2022-07-23T06:20:41;10.77;;;6.75;;
15476;SDS011;7840;42.702;23.296;2022-07-23T06:23:08;13.63;;;7.82;;
15476;SDS011;7840;42.702;23.296;2022-07-23T06:25:37;10.32;;;7.80;;
15476;SDS011;7840;42.702;23.296;2022-07-23T06:28:05;11.88;;;7.25;;
15476;SDS011;7840;42.702;23.296;2022-07-23T06:30:34;10.07;;;8.40;;
15476;SDS011;7840;42.702;23.296;2022-07-23T06:33:01;11.55;;;8.77;;
15476;SDS011;7840;42.702;23.296;2022-07-23T06:35:29;11.85;;;8.25;;
15476;SDS011;7840;42.702;23.296;2022-07-23T06:37:56;11.80;;;8.63;;
15476;SDS011;7840;42.702;23.296;2022-07-23T06:40:24;15.13;;;9.00;;
15476;SDS011;7840;42.702;23.296;2022-07-23T06:42:52;12.73;;;8.90;;
15476;SDS011;7840;42.702;23.296;2022-07-23T06:45:19;11.68;;;8.43;;
15476;SDS011;7840;42.702;23.296;2022-07-23T06:47:48;10.90;;;8.20;;
15476;SDS011;7840;42.702;23.296;2022-07-23T06:50:16;11.25;;;8.57;;
15476;SDS011;7840;42.702;23.296;2022-07-23T06:52:44;15.52;;;9.50;;
15476;SDS011;7840;42.702;23.296;2022-07-23T06:55:11;14.40;;;9.43;;
15476;SDS011;7840;42.702;23.296;2022-07-23T06:57:39;15.77;;;9.35;;
15476;SDS011;7840;42.702;23.296;2022-07-23T07:00:07;11.45;;;8.85;;
15476;SDS011;7840;42.702;23.296;2022-07-23T07:02:35;15.75;;;8.98;;
15476;SDS011;7840;42.702;23.296;2022-07-23T07:05:05;15.50;;;8.40;;
15476;SDS011;7840;42.702;23.296;2022-07-23T07:07:36;15.10;;;9.10;;
15476;SDS011;7840;42.702;23.296;2022-07-23T07:10:04;16.45;;;9.30;;
15476;SDS011;7840;42.702;23.296;2022-07-23T07:12:34;14.48;;;8.38;;
15476;SDS011;7840;42.702;23.296;2022-07-23T07:15:02;13.32;;;8.70;;
15476;SDS011;7840;42.702;23.296;2022-07-23T07:17:31;18.48;;;8.50;;
15476;SDS011;7840;42.702;23.296;2022-07-23T07:19:59;13.60;;;7.90;;
15476;SDS011;7840;42.702;23.296;2022-07-23T07:22:28;11.95;;;7.97;;
15476;SDS011;7840;42.702;23.296;2022-07-23T07:24:56;10.82;;;8.20;;
15476;SDS011;7840;42.702;23.296;2022-07-23T07:27:24;10.02;;;7.15;;
15476;SDS011;7840;42.702;23.296;2022-07-23T07:29:51;9.45;;;7.40;;
15476;SDS011;7840;42.702;23.296;2022-07-23T07:32:19;9.40;;;6.75;;
15476;SDS011;7840;42.702;23.296;2022-07-23T07:34:46;8.95;;;6.97;;
15476;SDS011;7840;42.702;23.296;2022-07-23T07:37:14;9.70;;;6.85;;
15476;SDS011;7840;42.702;23.296;2022-07-23T07:39:43;13.70;;;6.72;;
15476;SDS011;7840;42.702;23.296;2022-07-23T07:42:11;9.57;;;7.20;;
15476;SDS011;7840;42.702;23.296;2022-07-23T07:44:38;10.88;;;7.70;;
15476;SDS011;7840;42.702;23.296;2022-07-23T07:47:06;11.07;;;7.18;;
15476;SDS011;7840;42.702;23.296;2022-07-23T07:49:33;15.52;;;7.05;;
15476;SDS011;7840;42.702;23.296;2022-07-23T07:52:01;14.23;;;7.68;;
15476;SDS011;7840;42.702;23.296;2022-07-23T07:54:29;9.75;;;7.50;;
15476;SDS011;7840;42.702;23.296;2022-07-23T07:56:58;9.98;;;7.03;;
15476;SDS011;7840;42.702;23.296;2022-07-23T07:59:26;8.02;;;6.93;;
15476;SDS011;7840;42.702;23.296;2022-07-23T08:01:54;12.85;;;7.38;;
15476;SDS011;7840;42.702;23.296;2022-07-23T08:04:21;12.38;;;7.47;;
15476;SDS011;7840;42.702;23.296;2022-07-23T08:06:49;8.75;;;7.43;;
15476;SDS011;7840;42.702;23.296;2022-07-23T08:09:17;12.98;;;6.63;;
15476;SDS011;7840;42.702;23.296;2022-07-23T08:11:44;12.50;;;7.18;;
15476;SDS011;7840;42.702;23.296;2022-07-23T08:14:13;11.05;;;6.78;;
15476;SDS011;7840;42.702;23.296;2022-07-23T08:16:41;11.00;;;7.00;;
15476;SDS011;7840;42.702;23.296;2022-07-23T08:19:09;10.38;;;7.22;;
15476;SDS011;7840;42.702;23.296;2022-07-23T08:21:36;10.65;;;7.53;;
15476;SDS011;7840;42.702;23.296;2022-07-23T08:24:04;10.93;;;6.88;;
15476;SDS011;7840;42.702;23.296;2022-07-23T08:26:32;11.57;;;6.82;;
15476;SDS011;7840;42.702;23.296;2022-07-23T08:29:00;12.45;;;7.60;;
15476;SDS011;7840;42.702;23.296;2022-07-23T08:31:31;9.30;;;6.78;;
15476;SDS011;7840;42.702;23.296;2022-07-23T08:33:59;10.90;;;6.80;;
15476;SDS011;7840;42.702;23.296;2022-07-23T08:36:30;13.10;;;6.85;;
15476;SDS011;7840;42.702;23.296;2022-07-23T08:38:58;9.50;;;6.25;;
15476;SDS011;7840;42.702;23.296;2022-07-23T08:41:27;11.13;;;6.60;;
15476;SDS011;7840;42.702;23.296;2022-07-23T08:46:40;10.75;;;6.90;;
15476;SDS011;7840;42.702;23.296;2022-07-23T08:49:07;13.30;;;7.10;;
15476;SDS011;7840;42.702;23.296;2022-07-23T08:51:38;11.35;;;7.10;;
15476;SDS011;7840;42.702;23.296;2022-07-23T08:54:09;10.32;;;6.93;;
15476;SDS011;7840;42.702;23.296;2022-07-23T08:56:39;13.90;;;6.97;;
15476;SDS011;7840;42.702;23.296;2022-07-23T08:59:08;9.20;;;6.15;;
15476;SDS011;7840;42.702;23.296;2022-07-23T09:01:40;17.50;;;7.28;;
15476;SDS011;7840;42.702;23.296;2022-07-23T09:04:10;12.18;;;7.22;;
15476;SDS011;7840;42.702;23.296;2022-07-23T09:06:38;15.13;;;7.05;;
15476;SDS011;7840;42.702;23.296;2022-07-23T09:09:16;12.57;;;7.32;;
15476;SDS011;7840;42.702;23.296;2022-07-23T09:11:45;7.22;;;6.45;;
15476;SDS011;7840;42.702;23.296;2022-07-23T09:14:38;10.93;;;7.10;;
15476;SDS011;7840;42.702;23.296;2022-07-23T09:17:14;9.10;;;6.65;;
15476;SDS011;7840;42.702;23.296;2022-07-23T09:19:43;12.75;;;7.18;;
15476;SDS011;7840;42.702;23.296;2022-07-23T09:22:31;8.90;;;6.68;;
15476;SDS011;7840;42.702;23.296;2022-07-23T09:25:02;12.57;;;7.13;;
15476;SDS011;7840;42.702;23.296;2022-07-23T09:27:48;12.30;;;6.70;;
15476;SDS011;7840;42.702;23.296;2022-07-23T09:30:21;8.75;;;6.55;;
15476;SDS011;7840;42.702;23.296;2022-07-23T09:33:08;9.85;;;6.40;;
15476;SDS011;7840;42.702;23.296;2022-07-23T09:35:49;9.85;;;5.88;;
15476;SDS011;7840;42.702;23.296;2022-07-23T09:38:17;9.02;;;6.13;;
15476;SDS011;7840;42.702;23.296;2022-07-23T09:40:46;12.63;;;6.78;;
15476;SDS011;7840;42.702;23.296;2022-07-23T09:43:36;9.02;;;6.43;;
15476;SDS011;7840;42.702;23.296;2022-07-23T09:46:17;10.05;;;5.70;;
15476;SDS011;7840;42.702;23.296;2022-07-23T09:48:47;9.07;;;6.03;;
15476;SDS011;7840;42.702;23.296;2022-07-23T09:51:16;9.63;;;4.53;;
15476;SDS011;7840;42.702;23.296;2022-07-23T09:53:47;8.40;;;4.88;;
15476;SDS011;7840;42.702;23.296;2022-07-23T09:56:14;8.32;;;5.47;;
15476;SDS011;7840;42.702;23.296;2022-07-23T09:58:43;10.68;;;5.13;;
15476;SDS011;7840;42.702;23.296;2022-07-23T10:01:14;12.77;;;5.72;;
15476;SDS011;7840;42.702;23.296;2022-07-23T10:03:41;8.98;;;5.45;;
15476;SDS011;7840;42.702;23.296;2022-07-23T10:06:11;9.18;;;5.93;;
15476;SDS011;7840;42.702;23.296;2022-07-23T10:08:40;10.80;;;5.50;;
15476;SDS011;7840;42.702;23.296;2022-07-23T10:11:11;7.72;;;5.55;;
15476;SDS011;7840;42.702;23.296;2022-07-23T10:13:40;5.30;;;4.70;;
15476;SDS011;7840;42.702;23.296;2022-07-23T10:16:21;5.72;;;4.88;;
15476;SDS011;7840;42.702;23.296;2022-07-23T10:19:03;10.35;;;5.32;;
15476;SDS011;7840;42.702;23.296;2022-07-23T10:21:37;11.57;;;6.70;;
15476;SDS011;7840;42.702;23.296;2022-07-23T10:24:11;9.02;;;5.22;;
15476;SDS011;7840;42.702;23.296;2022-07-23T10:26:53;10.13;;;5.60;;
15476;SDS011;7840;42.702;23.296;2022-07-23T10:29:36;11.50;;;5.82;;
15476;SDS011;7840;42.702;23.296;2022-07-23T10:32:16;12.25;;;5.82;;
15476;SDS011;7840;42.702;23.296;2022-07-23T10:34:52;8.48;;;5.80;;
15476;SDS011;7840;42.702;23.296;2022-07-23T10:37:28;10.50;;;5.47;;
15476;SDS011;7840;42.702;23.296;2022-07-23T10:40:09;11.00;;;5.32;;
15476;SDS011;7840;42.702;23.296;2022-07-23T10:42:40;11.95;;;5.95;;
15476;SDS011;7840;42.702;23.296;2022-07-23T10:45:24;9.15;;;5.15;;
15476;SDS011;7840;42.702;23.296;2022-07-23T10:48:11;11.60;;;5.55;;
15476;SDS011;7840;42.702;23.296;2022-07-23T10:50:40;10.30;;;5.30;;
15476;SDS011;7840;42.702;23.296;2022-07-23T10:53:12;7.43;;;5.18;;
15476;SDS011;7840;42.702;23.296;2022-07-23T10:55:43;11.27;;;5.45;;
15476;SDS011;7840;42.702;23.296;2022-07-23T10:58:17;7.32;;;4.50;;
15476;SDS011;7840;42.702;23.296;2022-07-23T11:00:49;9.25;;;5.00;;
15476;SDS011;7840;42.702;23.296;2022-07-23T11:03:30;10.23;;;4.95;;
15476;SDS011;7840;42.702;23.296;2022-07-23T11:06:01;13.60;;;5.40;;
15476;SDS011;7840;42.702;23.296;2022-07-23T11:08:32;9.25;;;4.85;;
15476;SDS011;7840;42.702;23.296;2022-07-23T11:11:09;12.40;;;5.35;;
15476;SDS011;7840;42.702;23.296;2022-07-23T11:13:38;13.57;;;5.47;;
15476;SDS011;7840;42.702;23.296;2022-07-23T11:16:12;12.18;;;5.47;;
15476;SDS011;7840;42.702;23.296;2022-07-23T11:21:40;14.13;;;5.38;;
15476;SDS011;7840;42.702;23.296;2022-07-23T11:24:17;12.15;;;4.85;;
15476;SDS011;7840;42.702;23.296;2022-07-23T11:27:01;10.40;;;5.50;;
15476;SDS011;7840;42.702;23.296;2022-07-23T11:29:43;12.10;;;5.10;;
15476;SDS011;7840;42.702;23.296;2022-07-23T11:32:19;12.35;;;5.10;;
15476;SDS011;7840;42.702;23.296;2022-07-23T11:34:53;11.82;;;5.30;;
15476;SDS011;7840;42.702;23.296;2022-07-23T11:37:29;10.18;;;5.22;;
15476;SDS011;7840;42.702;23.296;2022-07-23T11:40:05;11.02;;;5.10;;
15476;SDS011;7840;42.702;23.296;2022-07-23T11:42:37;14.00;;;5.45;;
15476;SDS011;7840;42.702;23.296;2022-07-23T11:45:06;15.30;;;5.45;;
15476;SDS011;7840;42.702;23.296;2022-07-23T11:47:35;9.93;;;5.63;;
15476;SDS011;7840;42.702;23.296;2022-07-23T11:50:04;11.65;;;5.30;;
15476;SDS011;7840;42.702;23.296;2022-07-23T11:52:32;13.82;;;5.55;;
15476;SDS011;7840;42.702;23.296;2022-07-23T11:55:05;18.65;;;5.40;;
15476;SDS011;7840;42.702;23.296;2022-07-23T11:57:35;12.65;;;5.18;;
15476;SDS011;7840;42.702;23.296;2022-07-23T12:00:05;10.77;;;4.60;;
15476;SDS011;7840;42.702;23.296;2022-07-23T12:02:35;15.95;;;6.25;;
15476;SDS011;7840;42.702;23.296;2022-07-23T12:05:04;12.30;;;5.10;;
15476;SDS011;7840;42.702;23.296;2022-07-23T12:07:35;12.38;;;7.10;;
15476;SDS011;7840;42.702;23.296;2022-07-23T12:10:10;16.35;;;5.07;;
15476;SDS011;7840;42.702;23.296;2022-07-23T12:12:43;11.98;;;5.28;;
15476;SDS011;7840;42.702;23.296;2022-07-23T12:15:14;11.73;;;5.13;;
15476;SDS011;7840;42.702;23.296;2022-07-23T12:17:45;11.82;;;5.53;;
15476;SDS011;7840;42.702;23.296;2022-07-23T12:20:14;12.10;;;6.20;;
15476;SDS011;7840;42.702;23.296;2022-07-23T12:22:45;11.63;;;5.35;;
15476;SDS011;7840;42.702;23.296;2022-07-23T12:25:16;15.45;;;5.43;;
15476;SDS011;7840;42.702;23.296;2022-07-23T12:27:46;10.40;;;5.32;;
15476;SDS011;7840;42.702;23.296;2022-07-23T12:30:19;10.63;;;4.78;;
15476;SDS011;7840;42.702;23.296;2022-07-23T12:32:50;15.48;;;5.25;;
15476;SDS011;7840;42.702;23.296;2022-07-23T12:35:20;15.15;;;5.78;;
15476;SDS011;7840;42.702;23.296;2022-07-23T12:37:49;13.60;;;5.60;;
15476;SDS011;7840;42.702;23.296;2022-07-23T12:40:28;18.58;;;6.25;;
15476;SDS011;7840;42.702;23.296;2022-07-23T12:42:58;14.68;;;5.82;;
15476;SDS011;7840;42.702;23.296;2022-07-23T12:45:28;14.82;;;5.32;;
15476;SDS011;7840;42.702;23.296;2022-07-23T12:48:15;17.50;;;5.85;;
15476;SDS011;7840;42.702;23.296;2022-07-23T12:50:47;16.50;;;6.25;;
15476;SDS011;7840;42.702;23.296;2022-07-23T12:53:18;13.15;;;5.57;;
15476;SDS011;7840;42.702;23.296;2022-07-23T12:55:53;13.80;;;5.00;;
15476;SDS011;7840;42.702;23.296;2022-07-23T12:58:41;10.85;;;5.07;;
15476;SDS011;7840;42.702;23.296;2022-07-23T13:01:21;13.70;;;5.43;;
15476;SDS011;7840;42.702;23.296;2022-07-23T13:04:00;12.02;;;5.35;;
15476;SDS011;7840;42.702;23.296;2022-07-23T13:06:30;14.57;;;5.15;;
15476;SDS011;7840;42.702;23.296;2022-07-23T13:09:02;12.57;;;5.65;;
15476;SDS011;7840;42.702;23.296;2022-07-23T13:11:33;15.48;;;5.82;;
15476;SDS011;7840;42.702;23.296;2022-07-23T13:14:01;15.25;;;5.88;;
15476;SDS011;7840;42.702;23.296;2022-07-23T13:16:29;11.98;;;5.57;;
15476;SDS011;7840;42.702;23.296;2022-07-23T13:18:58;11.68;;;5.80;;
15476;SDS011;7840;42.702;23.296;2022-07-23T13:21:38;10.65;;;5.57;;
15476;SDS011;7840;42.702;23.296;2022-07-23T13:24:07;10.75;;;4.97;;
15476;SDS011;7840;42.702;23.296;2022-07-23T13:26:36;13.90;;;5.07;;
15476;SDS011;7840;42.702;23.296;2022-07-23T13:29:05;12.98;;;5.45;;
15476;SDS011;7840;42.702;23.296;2022-07-23T13:31:33;11.75;;;5.70;;
15476;SDS011;7840;42.702;23.296;2022-07-23T13:34:02;11.10;;;5.47;;
15476;SDS011;7840;42.702;23.296;2022-07-23T13:36:29;12.85;;;5.22;;
15476;SDS011;7840;42.702;23.296;2022-07-23T13:38:57;13.20;;;5.20;;
15476;SDS011;7840;42.702;23.296;2022-07-23T13:41:40;14.57;;;6.00;;
15476;SDS011;7840;42.702;23.296;2022-07-23T13:44:08;17.33;;;5.40;;
15476;SDS011;7840;42.702;23.296;2022-07-23T13:46:36;11.45;;;5.70;;
15476;SDS011;7840;42.702;23.296;2022-07-23T13:49:03;12.57;;;5.20;;
15476;SDS011;7840;42.702;23.296;2022-07-23T13:51:31;12.10;;;5.30;;
15476;SDS011;7840;42.702;23.296;2022-07-23T13:54:01;11.25;;;5.38;;
15476;SDS011;7840;42.702;23.296;2022-07-23T13:56:29;10.50;;;4.75;;
15476;SDS011;7840;42.702;23.296;2022-07-23T13:59:06;10.02;;;5.00;;
15476;SDS011;7840;42.702;23.296;2022-07-23T14:01:41;13.40;;;5.30;;
15476;SDS011;7840;42.702;23.296;2022-07-23T14:04:10;12.65;;;4.90;;
15476;SDS011;7840;42.702;23.296;2022-07-23T14:06:42;10.85;;;4.20;;
15476;SDS011;7840;42.702;23.296;2022-07-23T14:09:14;12.27;;;4.90;;
15476;SDS011;7840;42.702;23.296;2022-07-23T14:11:44;9.85;;;5.20;;
15476;SDS011;7840;42.702;23.296;2022-07-23T14:14:25;10.90;;;4.85;;
15476;SDS011;7840;42.702;23.296;2022-07-23T14:16:54;14.20;;;5.05;;
15476;SDS011;7840;42.702;23.296;2022-07-23T14:19:22;10.80;;;4.95;;
15476;SDS011;7840;42.702;23.296;2022-07-23T14:21:50;12.20;;;4.95;;
15476;SDS011;7840;42.702;23.296;2022-07-23T14:24:20;11.45;;;5.00;;
15476;SDS011;7840;42.702;23.296;2022-07-23T14:26:51;9.85;;;4.68;;
15476;SDS011;7840;42.702;23.296;2022-07-23T14:29:19;11.07;;;5.13;;
15476;SDS011;7840;42.702;23.296;2022-07-23T14:31:48;14.52;;;5.47;;
15476;SDS011;7840;42.702;23.296;2022-07-23T14:34:16;9.23;;;4.55;;
15476;SDS011;7840;42.702;23.296;2022-07-23T14:36:43;8.13;;;4.95;;
15476;SDS011;7840;42.702;23.296;2022-07-23T14:39:11;9.80;;;5.30;;
15476;SDS011;7840;42.702;23.296;2022-07-23T14:41:39;10.55;;;5.32;;
15476;SDS011;7840;42.702;23.296;2022-07-23T14:44:07;12.45;;;5.07;;
15476;SDS011;7840;42.702;23.296;2022-07-23T14:46:37;14.25;;;5.43;;
15476;SDS011;7840;42.702;23.296;2022-07-23T14:49:06;10.82;;;5.57;;
15476;SDS011;7840;42.702;23.296;2022-07-23T14:51:34;11.27;;;4.82;;
15476;SDS011;7840;42.702;23.296;2022-07-23T14:54:02;11.30;;;5.22;;
15476;SDS011;7840;42.702;23.296;2022-07-23T14:56:32;12.90;;;5.35;;
15476;SDS011;7840;42.702;23.296;2022-07-23T14:59:01;12.65;;;5.22;;
15476;SDS011;7840;42.702;23.296;2022-07-23T15:01:29;10.73;;;5.43;;